Time;durP1;ratioP1;P1;durP2;ratioP2;P2;SDS_P1;SDS_P2;PMS_P1;PMS_P2;Temp;Humidity;BMP_temperature;BMP_pressure;BME280_temperature;BME280_humidity;BME280_pressure;Samples;Min_cycle;Max_cycle;Signal;HPM_P1;HPM_P2
2022/12/07 00:01:34;;;;;;;6.83;1.63;;;27.20;99.90;;;;;;4935635;29;20181;-68
2022/12/07 00:04:06;;;;;;;9.27;1.93;;;27.20;99.90;;;;;;4936051;29;20227;-67
2022/12/07 00:06:39;;;;;;;5.77;1.17;;;27.80;99.90;;;;;;4935979;29;20173;-69
2022/12/07 00:09:09;;;;;;;10.90;1.60;;;28.20;99.20;;;;;;4936056;29;20172;-68
2022/12/07 00:11:37;;;;;;;5.17;1.10;;;28.40;90.90;;;;;;4935872;29;20573;-68
2022/12/07 00:14:07;;;;;;;4.93;1.13;;;28.20;91.10;;;;;;4935985;29;20240;-68
2022/12/07 00:16:36;;;;;;;5.10;1.17;;;28.20;94.20;;;;;;4935812;29;20247;-68
2022/12/07 00:19:05;;;;;;;7.83;1.43;;;28.60;87.80;;;;;;4934637;29;20188;-68
2022/12/07 00:21:34;;;;;;;7.27;1.77;;;28.90;86.30;;;;;;4935800;29;20240;-68
2022/12/07 00:24:03;;;;;;;11.73;1.77;;;29.10;89.60;;;;;;4935868;29;20219;-68
2022/12/07 00:26:34;;;;;;;12.90;1.80;;;29.30;85.70;;;;;;4934318;29;20656;-68
2022/12/07 00:29:17;;;;;;;9.60;1.50;;;29.50;90.00;;;;;;4935875;29;20246;-68
2022/12/07 00:31:44;;;;;;;9.50;1.90;;;29.70;87.60;;;;;;4935909;29;20181;-68
2022/12/07 00:34:20;;;;;;;13.17;2.07;;;29.30;84.50;;;;;;4935749;29;20212;-70
2022/12/07 00:36:48;;;;;;;11.50;1.80;;;28.90;91.00;;;;;;4936447;29;20324;-68
2022/12/07 00:39:16;;;;;;;12.57;1.60;;;28.40;87.60;;;;;;4936010;29;20180;-69
2022/12/07 00:41:44;;;;;;;9.60;1.33;;;28.40;90.00;;;;;;4935589;29;20189;-67
2022/12/07 00:44:12;;;;;;;6.73;1.57;;;28.30;91.50;;;;;;4935599;29;20566;-68
2022/12/07 00:46:40;;;;;;;8.17;1.43;;;28.20;90.90;;;;;;4935551;29;20188;-68
2022/12/07 00:49:07;;;;;;;6.83;1.70;;;28.10;90.00;;;;;;4935325;29;20236;-68
2022/12/07 00:51:35;;;;;;;5.20;1.70;;;27.60;89.10;;;;;;4935681;29;20271;-67
2022/12/07 00:54:03;;;;;;;16.20;1.77;;;27.70;91.00;;;;;;4935649;29;20270;-69
2022/12/07 00:56:31;;;;;;;7.00;1.37;;;27.80;92.40;;;;;;4935571;29;20185;-69
2022/12/07 00:59:03;;;;;;;5.63;1.20;;;27.60;92.20;;;;;;4935484;29;20189;-69
2022/12/07 01:01:34;;;;;;;5.80;1.07;;;27.40;91.80;;;;;;4935463;29;20268;-69
2022/12/07 01:04:02;;;;;;;8.37;1.50;;;27.70;89.70;;;;;;4935713;29;20185;-69
2022/12/07 01:06:30;;;;;;;5.83;1.00;;;27.60;90.10;;;;;;4935520;29;20657;-70
2022/12/07 01:08:58;;;;;;;7.77;1.30;;;27.70;84.30;;;;;;4935528;29;20177;-68
2022/12/07 01:11:29;;;;;;;5.20;1.50;;;27.80;83.30;;;;;;4935532;29;20267;-68
2022/12/07 01:13:59;;;;;;;9.70;1.40;;;28.10;86.50;;;;;;4937201;29;20208;-68
2022/12/07 01:16:28;;;;;;;6.10;1.23;;;28.20;80.80;;;;;;4939091;29;20184;-68
2022/12/07 01:18:57;;;;;;;7.40;1.83;;;28.40;81.70;;;;;;4938914;29;20176;-68
2022/12/07 01:21:28;;;;;;;2.77;1.20;;;28.80;81.00;;;;;;4937299;29;20204;-68
2022/12/07 01:23:58;;;;;;;4.73;1.60;;;29.20;74.20;;;;;;4938683;29;20177;-68
2022/12/07 01:26:27;;;;;;;6.07;1.87;;;28.90;73.70;;;;;;4938675;29;20177;-68
2022/12/07 01:28:55;;;;;;;6.27;1.60;;;29.10;79.70;;;;;;4938639;29;20176;-68
2022/12/07 01:31:25;;;;;;;6.20;1.40;;;28.90;75.60;;;;;;4938358;29;20186;-71
2022/12/07 01:33:58;;;;;;;6.10;1.50;;;28.90;67.70;;;;;;4938245;29;20236;-68
2022/12/07 01:36:31;;;;;;;4.53;1.10;;;28.90;61.50;;;;;;4938385;29;20180;-68
2022/12/07 01:39:01;;;;;;;3.70;1.40;;;28.70;63.60;;;;;;4938760;29;20556;-68
2022/12/07 01:41:32;;;;;;;4.83;1.37;;;28.90;71.10;;;;;;4938389;29;20172;-68
2022/12/07 01:44:21;;;;;;;7.20;1.33;;;29.00;71.00;;;;;;4938351;29;20220;-68
2022/12/07 01:47:00;;;;;;;6.73;1.37;;;29.00;68.50;;;;;;4938792;29;20232;-68
2022/12/07 01:49:33;;;;;;;5.37;1.37;;;29.00;65.30;;;;;;4938333;29;20264;-67
2022/12/07 01:52:19;;;;;;;7.53;1.40;;;28.80;65.50;;;;;;4938456;29;20575;-67
2022/12/07 01:54:49;;;;;;;8.97;1.80;;;28.70;69.10;;;;;;4937981;29;20216;-68
2022/12/07 01:57:18;;;;;;;2.63;0.90;;;28.60;66.70;;;;;;4936948;29;20187;-70
2022/12/07 01:59:51;;;;;;;5.27;1.20;;;28.60;63.70;;;;;;4938007;29;20227;-70
2022/12/07 02:02:29;;;;;;;4.80;1.20;;;28.50;63.30;;;;;;4938393;29;20177;-67
2022/12/07 02:04:59;;;;;;;4.80;1.03;;;28.70;64.10;;;;;;4938313;29;20212;-67
2022/12/07 02:07:29;;;;;;;6.30;1.43;;;29.00;64.10;;;;;;4938139;29;20173;-70
2022/12/07 02:09:57;;;;;;;3.90;1.43;;;29.00;68.00;;;;;;4937807;29;20173;-67
2022/12/07 02:12:26;;;;;;;7.00;1.30;;;28.90;67.30;;;;;;4937959;29;20194;-68
2022/12/07 02:14:54;;;;;;;5.30;1.33;;;28.80;73.10;;;;;;4937737;29;20221;-67
2022/12/07 02:17:53;;;;;;;7.07;1.80;;;29.00;68.20;;;;;;4937889;29;20227;-68
2022/12/07 02:20:28;;;;;;;4.07;1.10;;;29.00;70.00;;;;;;4935049;29;20279;-67
2022/12/07 02:23:27;;;;;;;3.87;0.93;;;28.90;68.80;;;;;;4936400;29;20188;-70
2022/12/07 02:26:18;;;;;;;12.10;1.77;;;28.70;68.60;;;;;;4937817;29;20257;-68
2022/12/07 02:29:12;;;;;;;4.13;1.30;;;28.60;67.00;;;;;;4937742;29;20201;-68
2022/12/07 02:31:57;;;;;;;7.30;0.90;;;28.50;62.70;;;;;;4937578;29;20199;-68
2022/12/07 02:34:42;;;;;;;4.47;1.07;;;28.40;65.30;;;;;;4936344;29;20216;-68
2022/12/07 02:37:30;;;;;;;6.20;1.30;;;28.40;65.30;;;;;;4937523;29;20631;-68
2022/12/07 02:40:28;;;;;;;5.37;0.90;;;28.50;61.30;;;;;;4937460;29;20185;-69
2022/12/07 02:43:14;;;;;;;6.00;1.10;;;28.60;61.90;;;;;;4937360;29;20268;-68
2022/12/07 02:45:44;;;;;;;4.13;1.17;;;28.50;60.40;;;;;;4937216;29;20187;-69
2022/12/07 02:48:14;;;;;;;4.63;0.97;;;28.30;59.70;;;;;;4937000;29;20632;-68
2022/12/07 02:50:48;;;;;;;6.80;1.30;;;28.30;61.60;;;;;;4936777;29;20189;-68
2022/12/07 02:53:42;;;;;;;4.57;1.47;;;28.00;63.80;;;;;;4936959;29;20208;-68
2022/12/07 02:56:30;;;;;;;7.83;1.10;;;27.80;68.10;;;;;;4937008;29;20635;-68
2022/12/07 02:59:22;;;;;;;6.27;1.20;;;27.90;70.00;;;;;;4936046;29;20199;-68
2022/12/07 03:02:27;;;;;;;5.43;1.20;;;27.90;63.70;;;;;;4936877;29;20264;-68
2022/12/07 03:05:04;;;;;;;5.47;1.33;;;27.90;63.40;;;;;;4937266;29;20199;-68
2022/12/07 03:07:58;;;;;;;6.87;1.00;;;27.90;64.60;;;;;;4937036;29;20180;-68
2022/12/07 03:10:43;;;;;;;3.80;1.03;;;27.80;60.90;;;;;;4937071;29;20181;-70
2022/12/07 03:13:23;;;;;;;3.63;0.90;;;27.90;51.40;;;;;;4936821;29;20205;-68
2022/12/07 03:16:12;;;;;;;2.50;0.97;;;28.00;46.90;;;;;;4937117;29;20260;-68
2022/12/07 03:18:52;;;;;;;2.70;0.87;;;28.10;49.10;;;;;;4936932;29;20228;-68
2022/12/07 03:21:28;;;;;;;2.60;0.90;;;28.20;49.20;;;;;;4936592;29;20721;-68
2022/12/07 03:23:59;;;;;;;1.60;0.60;;;28.20;33.30;;;;;;4936641;29;20258;-69
2022/12/07 03:26:34;;;;;;;4.47;0.97;;;28.20;28.60;;;;;;4936437;29;20181;-70
2022/12/07 03:29:09;;;;;;;9.93;0.80;;;28.10;25.40;;;;;;4936711;29;20271;-68
2022/12/07 03:31:42;;;;;;;3.17;0.60;;;28.10;22.40;;;;;;4936318;29;20232;-67
2022/12/07 03:34:31;;;;;;;6.23;0.50;;;28.00;21.80;;;;;;4936354;29;20207;-68
2022/12/07 03:37:04;;;;;;;3.47;0.50;;;28.00;20.80;;;;;;4936321;29;20187;-68
2022/12/07 03:39:52;;;;;;;3.40;0.73;;;27.90;19.70;;;;;;4936262;29;20177;-68
2022/12/07 03:42:20;;;;;;;1.47;0.40;;;27.90;20.20;;;;;;4936450;29;20188;-68
2022/12/07 03:44:49;;;;;;;2.60;0.57;;;28.00;19.10;;;;;;4935886;29;20804;-68
2022/12/07 03:47:27;;;;;;;3.17;0.60;;;27.90;18.50;;;;;;4936107;29;20654;-69
2022/12/07 03:50:02;;;;;;;10.03;1.40;;;28.00;19.50;;;;;;4935989;29;20237;-68
2022/12/07 03:52:48;;;;;;;1.00;0.73;;;28.00;18.10;;;;;;4936185;29;20243;-68
2022/12/07 03:55:21;;;;;;;2.70;0.60;;;27.90;18.70;;;;;;4935946;29;20689;-68
2022/12/07 03:57:52;;;;;;;4.23;0.80;;;27.70;16.80;;;;;;4936341;29;20685;-68
2022/12/07 04:00:20;;;;;;;2.20;0.57;;;27.60;17.10;;;;;;4935923;29;20213;-68
2022/12/07 04:02:51;;;;;;;4.83;0.80;;;27.40;17.20;;;;;;4933706;29;20185;-68
2022/12/07 04:05:19;;;;;;;1.33;0.60;;;27.30;15.80;;;;;;4934812;29;20183;-70
2022/12/07 04:07:47;;;;;;;3.60;0.43;;;27.10;16.00;;;;;;4935096;29;20193;-69
2022/12/07 04:10:15;;;;;;;2.73;0.40;;;27.00;15.60;;;;;;4933770;29;20667;-69
2022/12/07 04:12:43;;;;;;;1.17;0.43;;;26.90;15.40;;;;;;4935487;29;20195;-69
2022/12/07 04:15:11;;;;;;;2.67;0.50;;;26.90;15.10;;;;;;4935573;29;20226;-71
2022/12/07 04:17:39;;;;;;;1.77;0.70;;;26.90;15.50;;;;;;4935695;29;20181;-71
2022/12/07 04:20:08;;;;;;;1.73;0.73;;;26.90;15.70;;;;;;4935650;29;20188;-69
2022/12/07 04:22:36;;;;;;;3.10;0.57;;;26.90;16.70;;;;;;4934899;29;20647;-69
2022/12/07 04:25:04;;;;;;;8.23;0.80;;;26.90;15.90;;;;;;4935752;29;20224;-70
2022/12/07 04:27:32;;;;;;;4.97;0.90;;;26.90;16.80;;;;;;4935354;29;20192;-71
2022/12/07 04:30:00;;;;;;;7.27;0.77;;;27.00;17.40;;;;;;4934271;29;20189;-68
2022/12/07 04:32:28;;;;;;;1.17;0.37;;;27.00;15.50;;;;;;4935619;29;20580;-69
2022/12/07 04:34:55;;;;;;;3.00;0.50;;;27.00;15.90;;;;;;4935584;29;20679;-70
2022/12/07 04:37:24;;;;;;;4.57;0.80;;;27.00;15.70;;;;;;4935252;29;20263;-69
2022/12/07 04:39:52;;;;;;;6.63;1.00;;;26.90;16.20;;;;;;4933801;29;20212;-69
2022/12/07 04:42:19;;;;;;;8.23;1.27;;;26.90;16.20;;;;;;4935447;29;20709;-70
2022/12/07 04:44:47;;;;;;;5.67;1.13;;;26.90;15.20;;;;;;4935379;29;20189;-70
2022/12/07 04:47:15;;;;;;;2.70;0.70;;;26.90;16.30;;;;;;4935111;29;20568;-69
2022/12/07 04:49:43;;;;;;;1.40;0.70;;;27.00;17.00;;;;;;4938148;29;20234;-69
2022/12/07 04:52:12;;;;;;;3.60;0.63;;;27.00;16.80;;;;;;4939413;29;20181;-71
2022/12/07 04:54:39;;;;;;;2.83;0.60;;;26.80;16.40;;;;;;4939068;29;20212;-69
2022/12/07 04:57:07;;;;;;;3.50;0.90;;;26.80;17.10;;;;;;4938673;29;20181;-69
2022/12/07 04:59:35;;;;;;;2.87;0.80;;;26.70;17.90;;;;;;4939087;29;20204;-69
2022/12/07 05:02:02;;;;;;;2.00;0.63;;;26.80;19.10;;;;;;4938709;29;20189;-69
2022/12/07 05:04:30;;;;;;;3.60;0.70;;;26.80;18.70;;;;;;4939230;29;20649;-72
2022/12/07 05:06:58;;;;;;;2.60;0.60;;;26.70;19.00;;;;;;4937970;29;20247;-69
2022/12/07 05:09:26;;;;;;;1.70;0.57;;;26.70;19.30;;;;;;4938324;29;20654;-71
2022/12/07 05:11:53;;;;;;;2.43;0.50;;;26.60;19.90;;;;;;4938324;29;20188;-69
2022/12/07 05:14:22;;;;;;;2.57;0.67;;;26.40;19.40;;;;;;4929301;29;20263;-69
2022/12/07 05:16:51;;;;;;;3.43;0.70;;;26.30;20.90;;;;;;4937384;29;20183;-70
2022/12/07 05:19:20;;;;;;;2.67;0.50;;;26.20;21.80;;;;;;4937868;29;20188;-69
2022/12/07 05:21:48;;;;;;;2.83;0.83;;;26.10;21.80;;;;;;4935801;29;20717;-69
2022/12/07 05:24:17;;;;;;;2.57;0.70;;;26.10;22.90;;;;;;4938339;29;20176;-70
2022/12/07 05:26:45;;;;;;;5.40;0.63;;;26.10;23.60;;;;;;4938071;29;20659;-70
2022/12/07 05:29:15;;;;;;;4.63;0.70;;;26.00;23.40;;;;;;4938300;29;20185;-70
2022/12/07 05:31:44;;;;;;;1.80;0.60;;;25.90;24.90;;;;;;4938389;29;20673;-69
2022/12/07 05:34:12;;;;;;;5.43;0.60;;;25.90;24.90;;;;;;4938252;29;20208;-69
2022/12/07 05:36:40;;;;;;;2.53;0.53;;;25.80;25.60;;;;;;4938043;29;20219;-69
2022/12/07 05:39:08;;;;;;;1.97;0.70;;;25.70;26.00;;;;;;4937685;29;20192;-69
2022/12/07 05:44:22;;;;;;;5.90;1.03;;;25.60;27.00;;;;;;4937980;29;20207;-70
2022/12/07 05:46:50;;;;;;;2.23;0.40;;;25.50;27.90;;;;;;4930932;29;20192;-69
2022/12/07 05:49:18;;;;;;;3.17;0.57;;;25.50;28.10;;;;;;4931813;29;20645;-69
2022/12/07 05:51:45;;;;;;;5.47;1.27;;;25.40;28.70;;;;;;4938131;29;20561;-69
2022/12/07 05:54:13;;;;;;;4.10;0.80;;;25.50;29.70;;;;;;4938153;29;20570;-69
2022/12/07 05:56:41;;;;;;;3.90;0.70;;;25.40;30.30;;;;;;4938239;29;20597;-68
2022/12/07 06:02:11;;;;;;;2.27;0.73;;;25.40;33.60;;;;;;4928967;29;20192;-69
2022/12/07 06:04:42;;;;;;;5.43;0.77;;;25.40;34.70;;;;;;4938553;29;20181;-71
2022/12/07 06:07:11;;;;;;;3.20;0.60;;;25.30;35.10;;;;;;4937667;29;20189;-70
2022/12/07 06:09:39;;;;;;;3.60;0.70;;;25.40;35.80;;;;;;4936946;29;20185;-69
2022/12/07 06:14:55;;;;;;;1.67;0.90;;;25.30;36.30;;;;;;4938016;29;20231;-69
2022/12/07 06:17:23;;;;;;;2.20;0.80;;;25.20;37.70;;;;;;4937550;29;20185;-72
2022/12/07 06:19:51;;;;;;;5.20;0.90;;;25.20;38.10;;;;;;4937635;29;20619;-68
2022/12/07 06:22:19;;;;;;;1.93;0.90;;;25.20;37.50;;;;;;4937564;29;20184;-72
2022/12/07 06:24:47;;;;;;;2.20;0.60;;;25.20;37.30;;;;;;4937875;29;20203;-70
2022/12/07 06:27:15;;;;;;;4.93;1.00;;;25.20;38.90;;;;;;4938983;29;20236;-70
2022/12/07 06:29:42;;;;;;;6.70;0.87;;;25.10;40.40;;;;;;4939606;29;20276;-70
2022/12/07 06:32:11;;;;;;;1.67;0.90;;;25.10;41.00;;;;;;4936517;29;20642;-72
2022/12/07 06:34:39;;;;;;;3.53;0.90;;;25.10;42.00;;;;;;4921478;29;20315;-68
2022/12/07 06:37:07;;;;;;;3.07;0.70;;;25.20;42.80;;;;;;4936628;29;20184;-70
2022/12/07 06:39:34;;;;;;;4.40;0.90;;;25.30;43.00;;;;;;4936986;29;20184;-70
2022/12/07 06:42:02;;;;;;;2.57;0.70;;;25.30;45.20;;;;;;4936974;29;20275;-69
2022/12/07 06:44:30;;;;;;;4.00;0.90;;;25.20;46.60;;;;;;4937359;29;20204;-69
2022/12/07 06:46:58;;;;;;;8.97;1.20;;;25.20;48.30;;;;;;4937207;29;20279;-70
2022/12/07 06:49:26;;;;;;;1.63;0.60;;;25.10;49.20;;;;;;4936299;29;20228;-70
2022/12/07 06:51:54;;;;;;;3.53;0.80;;;25.00;52.40;;;;;;4936986;29;20212;-69
2022/12/07 06:54:22;;;;;;;7.27;0.90;;;24.90;55.30;;;;;;4937917;29;20358;-69
2022/12/07 06:56:50;;;;;;;1.77;0.70;;;24.80;58.50;;;;;;4936889;29;20630;-67
2022/12/07 06:59:17;;;;;;;2.90;0.90;;;24.90;61.20;;;;;;4936819;29;20267;-70
2022/12/07 07:01:45;;;;;;;1.93;0.70;;;24.90;63.20;;;;;;4935613;29;20278;-71
2022/12/07 07:04:13;;;;;;;2.17;0.73;;;24.90;66.70;;;;;;4935625;29;20189;-69
2022/12/07 07:06:41;;;;;;;2.07;0.70;;;24.80;67.90;;;;;;4937893;29;20200;-70
2022/12/07 07:09:09;;;;;;;2.33;0.50;;;24.70;72.20;;;;;;4940840;29;20191;-69
2022/12/07 07:11:37;;;;;;;2.37;0.70;;;24.60;77.20;;;;;;4955122;28;20180;-70
2022/12/07 07:14:04;;;;;;;1.87;0.60;;;24.50;79.50;;;;;;4944170;29;20227;-70
2022/12/07 07:16:32;;;;;;;1.63;0.90;;;24.40;83.30;;;;;;4936450;29;20684;-71
2022/12/07 07:19:00;;;;;;;1.87;0.53;;;24.40;86.50;;;;;;4936425;29;20247;-70
2022/12/07 07:21:27;;;;;;;2.93;0.97;;;24.30;90.50;;;;;;4936305;29;20215;-71
2022/12/07 07:23:56;;;;;;;3.70;0.93;;;24.30;91.30;;;;;;4936555;29;20186;-72
2022/12/07 07:26:24;;;;;;;3.17;0.73;;;24.20;93.10;;;;;;4936689;29;20184;-70
2022/12/07 07:28:52;;;;;;;2.97;0.70;;;24.10;94.30;;;;;;4936526;29;20185;-69
2022/12/07 07:31:20;;;;;;;4.67;0.80;;;24.10;95.80;;;;;;4936433;29;20247;-71
2022/12/07 07:33:48;;;;;;;2.13;0.90;;;24.00;98.10;;;;;;4936315;29;20259;-71
2022/12/07 07:36:16;;;;;;;6.93;0.77;;;24.00;98.10;;;;;;4936032;29;20283;-70
2022/12/07 07:38:43;;;;;;;5.90;0.73;;;24.00;98.10;;;;;;4936330;29;20173;-70
2022/12/07 07:41:11;;;;;;;6.47;0.83;;;24.00;99.40;;;;;;4936111;29;20188;-70
2022/12/07 07:43:39;;;;;;;1.40;0.53;;;23.90;99.90;;;;;;4935884;29;20188;-70
2022/12/07 07:46:07;;;;;;;3.80;0.73;;;23.90;99.90;;;;;;4936015;29;20192;-70
2022/12/07 07:48:34;;;;;;;1.47;0.73;;;23.90;99.90;;;;;;4936147;29;20236;-69
2022/12/07 07:51:07;;;;;;;3.20;0.50;;;24.00;99.90;;;;;;4936108;29;20181;-71
2022/12/07 07:53:35;;;;;;;1.70;0.73;;;23.90;99.90;;;;;;4935918;29;20223;-71
2022/12/07 07:56:03;;;;;;;3.60;0.73;;;23.80;99.90;;;;;;4935654;29;20650;-72
2022/12/07 07:58:31;;;;;;;3.30;0.77;;;23.70;99.90;;;;;;4936201;29;20605;-70
2022/12/07 08:01:03;;;;;;;2.20;0.80;;;23.60;99.90;;;;;;4935908;29;20666;-70
2022/12/07 08:03:31;;;;;;;1.17;0.50;;;23.60;99.90;;;;;;4935533;29;20259;-70
2022/12/07 08:05:59;;;;;;;3.40;0.80;;;23.70;99.90;;;;;;4935832;29;20604;-70
2022/12/07 08:08:27;;;;;;;3.70;0.53;;;23.60;99.90;;;;;;4935517;29;20187;-69
2022/12/07 08:10:55;;;;;;;3.10;0.90;;;23.60;99.90;;;;;;4935424;29;20192;-70
2022/12/07 08:13:22;;;;;;;2.27;0.60;;;23.60;99.90;;;;;;4935267;29;20556;-71
2022/12/07 08:15:50;;;;;;;2.13;0.70;;;23.50;99.90;;;;;;4935746;29;20263;-69
2022/12/07 08:18:18;;;;;;;1.97;0.40;;;23.50;99.90;;;;;;4935636;29;20176;-71
2022/12/07 08:20:46;;;;;;;1.27;0.97;;;23.40;99.90;;;;;;4935823;29;20253;-69
2022/12/07 08:23:14;;;;;;;1.73;0.60;;;23.40;99.90;;;;;;4937910;29;20196;-69
2022/12/07 08:25:41;;;;;;;2.10;0.80;;;23.30;99.90;;;;;;4939841;29;20176;-70
2022/12/07 08:28:09;;;;;;;0.87;0.43;;;23.30;99.90;;;;;;4938858;29;20208;-70
2022/12/07 08:30:37;;;;;;;1.23;0.77;;;23.30;99.90;;;;;;4939460;29;20177;-69
2022/12/07 08:33:05;;;;;;;1.30;0.60;;;23.30;99.90;;;;;;4939125;29;20594;-70
2022/12/07 08:35:34;;;;;;;1.83;0.87;;;23.30;99.90;;;;;;4939334;29;20192;-70
2022/12/07 08:38:03;;;;;;;2.00;0.60;;;23.20;99.90;;;;;;4939409;29;20552;-71
2022/12/07 08:40:31;;;;;;;1.57;0.60;;;23.20;99.90;;;;;;4938407;29;20199;-69
2022/12/07 08:42:59;;;;;;;5.10;0.77;;;23.20;99.90;;;;;;4939251;29;20199;-69
2022/12/07 08:45:27;;;;;;;0.70;0.60;;;23.10;99.90;;;;;;4939069;29;20251;-70
2022/12/07 08:48:04;;;;;;;1.80;0.73;;;23.10;99.90;;;;;;4938359;29;20195;-70
2022/12/07 08:50:33;;;;;;;2.00;0.73;;;23.00;99.90;;;;;;4938606;29;20176;-70
2022/12/07 08:53:01;;;;;;;0.67;0.40;;;23.00;99.90;;;;;;4936230;29;20193;-69
2022/12/07 08:55:30;;;;;;;0.80;0.57;;;23.00;99.90;;;;;;4938523;29;20247;-69
2022/12/07 08:57:59;;;;;;;4.13;1.30;;;23.00;99.90;;;;;;4935863;29;20188;-69
2022/12/07 09:00:27;;;;;;;2.37;0.80;;;22.90;99.90;;;;;;4938661;29;20207;-70
2022/12/07 09:02:55;;;;;;;1.17;0.63;;;22.80;99.90;;;;;;4938160;29;20189;-69
2022/12/07 09:05:23;;;;;;;3.63;1.10;;;22.70;99.90;;;;;;4937532;29;20293;-70
2022/12/07 09:07:55;;;;;;;2.97;0.70;;;22.70;99.90;;;;;;4938131;29;20198;-68
2022/12/07 09:10:23;;;;;;;3.27;0.80;;;22.70;99.90;;;;;;4937767;29;20184;-69
2022/12/07 09:12:51;;;;;;;3.07;0.90;;;22.70;99.90;;;;;;4950744;29;20175;-69
2022/12/07 09:15:19;;;;;;;4.03;0.83;;;22.70;99.90;;;;;;4957653;29;20215;-69
2022/12/07 09:17:47;;;;;;;3.47;0.70;;;22.80;99.90;;;;;;4950538;29;20177;-68
2022/12/07 09:20:15;;;;;;;3.07;1.00;;;22.80;99.90;;;;;;4938266;29;20326;-69
2022/12/07 09:22:42;;;;;;;4.30;1.50;;;22.80;99.90;;;;;;4938319;29;20766;-68
2022/12/07 09:25:10;;;;;;;3.10;0.80;;;22.70;99.90;;;;;;4938551;29;20184;-69
2022/12/07 09:27:38;;;;;;;3.73;0.90;;;22.70;99.90;;;;;;4938593;29;20191;-69
2022/12/07 09:30:07;;;;;;;2.00;1.00;;;22.60;99.90;;;;;;4938342;29;20232;-72
2022/12/07 09:32:35;;;;;;;4.03;0.90;;;22.60;99.90;;;;;;4938822;29;20172;-71
2022/12/07 09:35:03;;;;;;;2.00;0.80;;;22.50;99.90;;;;;;4936780;29;20236;-68
2022/12/07 09:37:34;;;;;;;2.67;0.83;;;22.50;99.90;;;;;;4938501;29;20185;-70
2022/12/07 09:40:04;;;;;;;1.67;1.10;;;22.40;99.90;;;;;;4938365;29;20181;-70
2022/12/07 09:42:45;;;;;;;4.03;0.80;;;22.30;99.90;;;;;;4938481;29;20212;-69
2022/12/07 09:45:25;;;;;;;3.60;1.00;;;22.20;99.90;;;;;;4938086;29;20188;-71
2022/12/07 09:47:53;;;;;;;4.67;1.00;;;22.20;99.90;;;;;;4937888;29;20172;-69
2022/12/07 09:50:24;;;;;;;3.63;1.10;;;22.10;99.90;;;;;;4937501;29;20199;-68
2022/12/07 09:52:54;;;;;;;1.63;0.57;;;22.10;99.90;;;;;;4938212;29;20180;-70
2022/12/07 09:55:31;;;;;;;2.77;0.93;;;22.10;99.90;;;;;;4937600;29;20363;-69
2022/12/07 09:57:59;;;;;;;2.67;1.30;;;22.10;99.90;;;;;;4936689;29;20199;-70
2022/12/07 10:00:28;;;;;;;2.73;0.70;;;22.10;99.90;;;;;;4937935;29;20177;-69
2022/12/07 10:03:01;;;;;;;2.10;0.73;;;22.10;99.90;;;;;;4937997;29;20176;-69
2022/12/07 10:05:37;;;;;;;1.53;0.87;;;22.10;99.90;;;;;;4937588;29;20197;-70
2022/12/07 10:08:24;;;;;;;4.00;0.93;;;22.10;99.90;;;;;;4937678;29;20196;-70
2022/12/07 10:10:56;;;;;;;1.97;0.80;;;22.10;99.90;;;;;;4937341;29;20184;-69
2022/12/07 10:13:48;;;;;;;3.23;1.10;;;22.10;99.90;;;;;;4937738;29;20619;-69
2022/12/07 10:16:31;;;;;;;5.00;0.90;;;22.10;99.90;;;;;;4937607;29;20196;-70
2022/12/07 10:19:19;;;;;;;4.20;0.90;;;22.10;99.90;;;;;;4925558;29;20681;-69
2022/12/07 10:22:05;;;;;;;3.37;0.80;;;22.00;99.90;;;;;;4937531;29;20189;-70
2022/12/07 10:24:33;;;;;;;5.50;0.93;;;22.10;99.90;;;;;;4937225;29;20665;-70
2022/12/07 10:27:01;;;;;;;2.53;0.67;;;22.00;99.90;;;;;;4936932;29;20650;-70
2022/12/07 10:29:36;;;;;;;2.53;1.27;;;22.00;99.90;;;;;;4935997;29;20192;-70
2022/12/07 10:32:36;;;;;;;2.33;0.60;;;21.90;99.90;;;;;;4937290;29;20180;-70
2022/12/07 10:35:23;;;;;;;1.00;0.77;;;21.90;99.90;;;;;;4937000;29;20216;-70
2022/12/07 10:37:53;;;;;;;2.43;0.70;;;22.00;99.90;;;;;;4937215;29;20176;-71
2022/12/07 10:40:31;;;;;;;0.60;0.53;;;22.00;99.90;;;;;;4936927;29;20206;-70
2022/12/07 10:43:06;;;;;;;1.67;0.60;;;22.00;99.90;;;;;;4918182;29;20224;-68
2022/12/07 10:45:35;;;;;;;2.80;0.77;;;22.00;99.90;;;;;;4927857;29;20185;-69
2022/12/07 10:48:18;;;;;;;1.20;0.60;;;21.90;99.90;;;;;;4936666;29;20212;-69
2022/12/07 10:51:01;;;;;;;2.77;0.87;;;21.90;99.90;;;;;;4937036;29;20687;-70
2022/12/07 10:53:53;;;;;;;1.13;0.60;;;21.90;99.90;;;;;;4936676;29;20690;-69
2022/12/07 10:56:26;;;;;;;1.17;0.50;;;21.90;99.90;;;;;;4935053;29;20202;-70
2022/12/07 10:59:34;;;;;;;2.30;0.60;;;21.80;99.90;;;;;;4919564;29;20635;-70
2022/12/07 11:02:16;;;;;;;1.57;0.80;;;21.70;99.90;;;;;;4936438;29;20268;-69
2022/12/07 11:04:57;;;;;;;6.03;0.60;;;21.60;99.90;;;;;;4936930;29;20642;-70
2022/12/07 11:07:47;;;;;;;3.43;0.73;;;21.60;99.90;;;;;;4919531;29;20247;-72
2022/12/07 11:10:51;;;;;;;1.40;0.70;;;21.60;99.90;;;;;;4936965;29;20231;-70
2022/12/07 11:13:42;;;;;;;2.93;0.70;;;21.60;99.90;;;;;;4936722;29;20185;-69
2022/12/07 11:16:24;;;;;;;0.70;0.50;;;21.70;99.90;;;;;;4936219;29;20195;-69
2022/12/07 11:19:07;;;;;;;0.80;0.50;;;21.70;99.90;;;;;;4921932;29;20181;-69
2022/12/07 11:21:57;;;;;;;1.03;0.53;;;21.60;99.90;;;;;;4936765;29;20662;-70
2022/12/07 11:24:34;;;;;;;0.90;0.60;;;21.70;99.90;;;;;;4936321;29;20263;-70
2022/12/07 11:27:33;;;;;;;1.80;0.50;;;21.70;99.90;;;;;;4936517;29;20176;-69
2022/12/07 11:30:20;;;;;;;1.00;0.70;;;21.60;99.90;;;;;;4935774;29;20187;-70
2022/12/07 11:33:02;;;;;;;0.60;0.60;;;21.50;99.90;;;;;;4934322;29;20547;-69
2022/12/07 11:35:53;;;;;;;0.87;0.40;;;21.50;99.90;;;;;;4935880;29;20220;-70
2022/12/07 11:38:38;;;;;;;0.87;0.67;;;21.40;99.90;;;;;;4936645;29;20176;-70
2022/12/07 11:41:13;;;;;;;1.13;0.60;;;21.20;99.90;;;;;;4936524;29;20710;-71
2022/12/07 11:44:02;;;;;;;2.10;0.70;;;21.20;99.90;;;;;;4936000;29;20180;-69
2022/12/07 11:46:54;;;;;;;0.50;0.50;;;21.10;99.90;;;;;;4925608;29;20735;-69
2022/12/07 11:49:45;;;;;;;1.70;0.47;;;21.10;99.90;;;;;;4935764;29;20235;-69
2022/12/07 11:52:25;;;;;;;0.80;0.43;;;21.10;99.90;;;;;;4936510;29;20270;-68
2022/12/07 11:54:54;;;;;;;2.23;0.90;;;21.00;99.90;;;;;;4935884;29;20220;-69
2022/12/07 11:57:37;;;;;;;2.90;0.80;;;20.90;99.90;;;;;;4935789;29;20202;-71
2022/12/07 12:00:14;;;;;;;1.07;0.70;;;20.90;99.90;;;;;;4935798;29;20211;-69
2022/12/07 12:03:00;;;;;;;2.97;0.70;;;20.80;99.90;;;;;;4935704;29;20192;-69
2022/12/07 12:05:29;;;;;;;1.23;0.60;;;20.70;99.90;;;;;;4918485;29;20645;-72
2022/12/07 12:08:05;;;;;;;1.67;0.80;;;20.70;99.90;;;;;;4936165;29;20195;-70
2022/12/07 12:10:50;;;;;;;0.80;0.60;;;20.70;99.90;;;;;;4936354;29;20177;-71
2022/12/07 12:13:34;;;;;;;2.37;1.00;;;20.50;99.90;;;;;;4935573;29;20176;-70
2022/12/07 12:16:39;;;;;;;2.10;0.80;;;20.40;99.90;;;;;;4931225;29;20220;-68
2022/12/07 12:19:28;;;;;;;1.87;0.70;;;20.40;99.90;;;;;;4934735;29;20547;-69
2022/12/07 12:22:04;;;;;;;3.07;0.80;;;20.40;99.90;;;;;;4936274;29;20208;-71
2022/12/07 12:24:36;;;;;;;2.47;0.63;;;20.40;99.90;;;;;;4935862;29;20672;-70
2022/12/07 12:27:09;;;;;;;2.67;0.87;;;20.40;99.90;;;;;;4935912;29;20180;-69
2022/12/07 12:29:43;;;;;;;1.43;0.70;;;20.40;99.90;;;;;;4935516;29;20216;-70
2022/12/07 12:32:22;;;;;;;0.90;0.60;;;20.40;99.90;;;;;;4935671;29;20175;-70
2022/12/07 12:34:59;;;;;;;2.40;0.60;;;20.40;99.90;;;;;;4935333;29;20216;-69
2022/12/07 12:37:36;;;;;;;1.77;0.60;;;20.40;99.90;;;;;;4935522;29;20215;-71
2022/12/07 12:40:16;;;;;;;1.10;0.50;;;20.40;99.90;;;;;;4935947;29;20221;-70
2022/12/07 12:42:52;;;;;;;1.53;0.53;;;20.40;99.90;;;;;;4935845;29;20670;-70
2022/12/07 12:45:22;;;;;;;1.20;0.60;;;20.40;99.90;;;;;;4935182;29;20228;-69
2022/12/07 12:48:02;;;;;;;2.00;0.83;;;20.50;99.90;;;;;;4935689;29;20262;-69
2022/12/07 12:50:35;;;;;;;0.87;0.50;;;20.60;99.90;;;;;;4936349;29;20187;-70
2022/12/07 12:53:15;;;;;;;0.93;0.50;;;20.80;99.90;;;;;;4935807;29;20575;-71
2022/12/07 12:55:43;;;;;;;1.37;0.70;;;20.90;99.90;;;;;;4935622;29;20331;-68
2022/12/07 12:58:19;;;;;;;1.70;0.73;;;21.00;99.90;;;;;;4935411;29;20569;-69
2022/12/07 13:01:07;;;;;;;1.07;0.50;;;21.00;99.90;;;;;;4935162;29;20192;-68
2022/12/07 13:03:36;;;;;;;3.20;0.60;;;21.00;99.90;;;;;;4935397;29;20271;-70
2022/12/07 13:06:26;;;;;;;1.13;0.70;;;21.00;99.90;;;;;;4934002;29;20662;-70
2022/12/07 13:08:58;;;;;;;2.03;0.70;;;20.80;99.90;;;;;;4928966;29;20196;-70
2022/12/07 13:11:45;;;;;;;1.63;0.70;;;20.80;99.90;;;;;;4938772;29;20191;-70
2022/12/07 13:14:49;;;;;;;0.97;0.60;;;20.80;99.90;;;;;;4938799;29;20272;-70
2022/12/07 13:17:35;;;;;;;2.40;0.70;;;20.70;99.90;;;;;;4938950;29;20189;-70
2022/12/07 13:20:07;;;;;;;1.67;0.50;;;20.60;99.90;;;;;;4939130;29;20265;-70
2022/12/07 13:22:39;;;;;;;1.37;0.83;;;20.70;99.90;;;;;;4938742;29;20225;-69
2022/12/07 13:25:39;;;;;;;1.07;0.60;;;20.70;99.90;;;;;;4938533;29;20291;-69
2022/12/07 13:28:33;;;;;;;2.23;0.73;;;20.50;99.90;;;;;;4927796;29;20565;-69